Aérodrome :
LOGIN :

S'inscrire | Disclaimer

   EN    FR    IT 

 










Légende :    VFR   VFR Marginal   IFR   IFR Intensif   IFR Très Intensif
Visi : 
Plafond : 
>= 8 km
>= 3000ft
5 à 8 km
1000 à 3000 ft
1500m à 5 km
500 à 1000 ft
800 à 1500m
200 à 500 ft
< 800m
< 200 ft
Symboles :   Orages  Brouillard  Fortes neiges  Fortes précipitations  Vent > 20 kt
SIGMETs :   Divers  Orages  Givrage  Turbulence  Onde Orograph.  Cendres Volcan.






- Altitude de l'aérodrome : 148 ft
- Code IATA : ALL


LIMG - Villanova D'Albenga International

DERNIER METAR :
  • 071450Z 28013KT 9999 1000NE SCT070 30/18 Q1012

METARs EXPIRÉS :
  • 071350Z 28007KT 260V320 9999 1000N SCT070CB 31/15 Q1012
  • 071250Z 09008KT 060V120 9999 1000NW SCT070 34/14 Q1012

TAF TAF LIMG
Valide du 07 à 12h jusqu'au 08 à 12h UTC


071100Z 0712/0812 02012KT 9999 SCT040
TEMPO 0712/0721 4000 TSRA
BECMG 0719/0721 VRB05KT



MET'MAP, la Météo Aéronautique d'un coup d'oeil ! - Copyright ORBIFLY Décembre 2007 - Disclaimer

ORBIFLY MET'MAP TEAM :

Programmation & Développement : Alexandra Zaïnal
Sur une idée originale de : Baudouin d'Aumeries
Soutien technique & logistique : Manuel Goepfert
Assistance : Marc-Olivier Méhu




SOURCES & CREDITS :

   NOAA